Sun Universe — 3FOQ4 — position and weather

sailwx.info

Track history (hours):
 
Tides and Currents Weather Stations Pressure Air Temp Water Temp Dewpoint Dewpoint Depression Visibility Wind Speed Wind Dir Waves Ship Positions

Sun Universe

Last reported at 2014-Sep-16 03:20 UTC. Time now 2014-Sep-17 03:28 UTC.
Position N 33°06' E 132°07'.

Length 116 m; draft 5 m.

Type: Cargo ship. MMSI: 371647000.

Date/timePositionNaut miles runAvg speedWind from/ knotsBaromVisibWave heightAir tempDewpointWater temp
2014-Sep-16 03:20N 33°06' E 132°07'1113.6
2014-Sep-16 02:32N 32°55' E 132°09'1313.4
2014-Sep-16 01:33N 32°43' E 132°02'1313.5
2014-Sep-16 00:33N 32°31' E 131°55'1413.6
2014-Sep-15 23:33N 32°19' E 131°48'1414.0
2014-Sep-15 22:33N 32°06' E 131°42'  
2014-Sep-13 13:22N 24°20' E 120°22'1214.3
2014-Sep-13 12:31N 24°09' E 120°15'1313.8
2014-Sep-13 11:33N 23°58' E 120°08'1812.4
2014-Sep-13 10:09N 23°43' E 119°58'5612.2
2014-Sep-13 05:33N 22°47' E 120°06'1211.9
2014-Sep-13 04:33N 22°38' E 120°14'3 3.1
2014-Sep-13 03:31N 22°37' E 120°17'0 0.0
2014-Sep-13 02:31N 22°37' E 120°17'0 0.0
2014-Sep-13 01:33N 22°37' E 120°17'0 0.0
2014-Sep-13 00:33N 22°37' E 120°17'0 0.0
2014-Sep-12 23:33N 22°37' E 120°17'0 0.0
2014-Sep-12 22:33N 22°37' E 120°17'0 0.0
2014-Sep-12 21:33N 22°37' E 120°17'0 0.0
2014-Sep-12 20:33N 22°37' E 120°17'0 0.0
2014-Sep-12 19:33N 22°37' E 120°17'0 0.0
2014-Sep-12 18:33N 22°37' E 120°17'0 0.0
2014-Sep-12 17:33N 22°37' E 120°17'0 0.0
2014-Sep-12 16:33N 22°37' E 120°17'0 0.0
2014-Sep-12 15:33N 22°37' E 120°17'0 0.0
2014-Sep-12 14:33N 22°37' E 120°17'0 0.0
2014-Sep-12 13:33N 22°37' E 120°17'0 0.0
2014-Sep-12 12:33N 22°37' E 120°17'0 0.0
2014-Sep-12 11:33N 22°37' E 120°17'0 0.0
2014-Sep-12 10:33N 22°37' E 120°17'0 0.0
2014-Sep-12 09:33N 22°37' E 120°17'0 0.0
2014-Sep-12 08:33N 22°37' E 120°17'0 0.0
2014-Sep-12 07:33N 22°37' E 120°17'0 0.0
2014-Sep-12 06:33N 22°37' E 120°17'0 0.0
2014-Sep-12 05:33N 22°37' E 120°17'0 0.0
2014-Sep-12 04:33N 22°37' E 120°17'0 0.0
2014-Sep-12 03:33N 22°37' E 120°17'0 0.0
2014-Sep-12 02:33N 22°37' E 120°17'0 0.0
2014-Sep-12 01:33N 22°37' E 120°17'0 0.0
2014-Sep-12 00:33N 22°37' E 120°17'0 0.0
2014-Sep-11 23:33N 22°37' E 120°17'4 4.4
2014-Sep-11 22:33N 22°37' E 120°12'1 0.5
2014-Sep-11 21:28N 22°37' E 120°13'0 0.0
2014-Sep-11 20:28N 22°37' E 120°13'0 0.1
2014-Sep-11 19:28N 22°37' E 120°13'0 0.0
2014-Sep-11 18:22N 22°37' E 120°13'0 0.1
2014-Sep-11 17:22N 22°37' E 120°13'0 0.0
2014-Sep-11 16:28N 22°37' E 120°13'0 0.0
2014-Sep-11 15:28N 22°37' E 120°13'0 0.0
2014-Sep-11 14:28N 22°37' E 120°13'0 0.0
2014-Sep-11 13:28N 22°37' E 120°13'0 0.1
2014-Sep-11 12:28N 22°37' E 120°13'0 0.1
2014-Sep-11 11:28N 22°37' E 120°13'1 0.9
2014-Sep-11 10:33N 22°37' E 120°12'1110.6
2014-Sep-11 09:33N 22°44' E 120°03'1313.2
2014-Sep-11 08:33N 22°55' E 119°55'2114.8
2014-Sep-11 07:09N 23°16' E 119°55'2213.8
2014-Sep-11 05:33N 23°38' E 119°55'1212.3
2014-Sep-11 04:33N 23°49' E 119°58'  
Track history (hours):
 
Tides and Currents Weather Stations Pressure Air Temp Water Temp Dewpoint Dewpoint Depression Visibility Wind Speed Wind Dir Waves Ship Positions

Sun Universe

Last reported at 2014-Sep-16 03:20 UTC. Time now 2014-Sep-17 03:28 UTC.
Position N 33°06' E 132°07'.

Length 116 m; draft 5 m.

Type: Cargo ship. MMSI: 371647000.

Date/timePositionNaut miles runAvg speedWind from/ knotsBaromVisibWave heightAir tempDewpointWater temp
2014-Sep-16 03:20N 33°06' E 132°07'1113.6
2014-Sep-16 02:32N 32°55' E 132°09'1313.4
2014-Sep-16 01:33N 32°43' E 132°02'1313.5
2014-Sep-16 00:33N 32°31' E 131°55'1413.6
2014-Sep-15 23:33N 32°19' E 131°48'1414.0
2014-Sep-15 22:33N 32°06' E 131°42'  
2014-Sep-13 13:22N 24°20' E 120°22'1214.3
2014-Sep-13 12:31N 24°09' E 120°15'1313.8
2014-Sep-13 11:33N 23°58' E 120°08'1812.4
2014-Sep-13 10:09N 23°43' E 119°58'5612.2
2014-Sep-13 05:33N 22°47' E 120°06'1211.9
2014-Sep-13 04:33N 22°38' E 120°14'3 3.1
2014-Sep-13 03:31N 22°37' E 120°17'0 0.0
2014-Sep-13 02:31N 22°37' E 120°17'0 0.0
2014-Sep-13 01:33N 22°37' E 120°17'0 0.0
2014-Sep-13 00:33N 22°37' E 120°17'0 0.0
2014-Sep-12 23:33N 22°37' E 120°17'0 0.0
2014-Sep-12 22:33N 22°37' E 120°17'0 0.0
2014-Sep-12 21:33N 22°37' E 120°17'0 0.0
2014-Sep-12 20:33N 22°37' E 120°17'0 0.0
2014-Sep-12 19:33N 22°37' E 120°17'0 0.0
2014-Sep-12 18:33N 22°37' E 120°17'0 0.0
2014-Sep-12 17:33N 22°37' E 120°17'0 0.0
2014-Sep-12 16:33N 22°37' E 120°17'0 0.0
2014-Sep-12 15:33N 22°37' E 120°17'0 0.0
2014-Sep-12 14:33N 22°37' E 120°17'0 0.0
2014-Sep-12 13:33N 22°37' E 120°17'0 0.0
2014-Sep-12 12:33N 22°37' E 120°17'0 0.0
2014-Sep-12 11:33N 22°37' E 120°17'0 0.0
2014-Sep-12 10:33N 22°37' E 120°17'0 0.0
2014-Sep-12 09:33N 22°37' E 120°17'0 0.0
2014-Sep-12 08:33N 22°37' E 120°17'0 0.0
2014-Sep-12 07:33N 22°37' E 120°17'0 0.0
2014-Sep-12 06:33N 22°37' E 120°17'0 0.0
2014-Sep-12 05:33N 22°37' E 120°17'0 0.0
2014-Sep-12 04:33N 22°37' E 120°17'0 0.0
2014-Sep-12 03:33N 22°37' E 120°17'0 0.0
2014-Sep-12 02:33N 22°37' E 120°17'0 0.0
2014-Sep-12 01:33N 22°37' E 120°17'0 0.0
2014-Sep-12 00:33N 22°37' E 120°17'0 0.0
2014-Sep-11 23:33N 22°37' E 120°17'4 4.4
2014-Sep-11 22:33N 22°37' E 120°12'1 0.5
2014-Sep-11 21:28N 22°37' E 120°13'0 0.0
2014-Sep-11 20:28N 22°37' E 120°13'0 0.1
2014-Sep-11 19:28N 22°37' E 120°13'0 0.0
2014-Sep-11 18:22N 22°37' E 120°13'0 0.1
2014-Sep-11 17:22N 22°37' E 120°13'0 0.0
2014-Sep-11 16:28N 22°37' E 120°13'0 0.0
2014-Sep-11 15:28N 22°37' E 120°13'0 0.0
2014-Sep-11 14:28N 22°37' E 120°13'0 0.0
2014-Sep-11 13:28N 22°37' E 120°13'0 0.1
2014-Sep-11 12:28N 22°37' E 120°13'0 0.1
2014-Sep-11 11:28N 22°37' E 120°13'1 0.9
2014-Sep-11 10:33N 22°37' E 120°12'1110.6
2014-Sep-11 09:33N 22°44' E 120°03'1313.2
2014-Sep-11 08:33N 22°55' E 119°55'2114.8
2014-Sep-11 07:09N 23°16' E 119°55'2213.8
2014-Sep-11 05:33N 23°38' E 119°55'1212.3
2014-Sep-11 04:33N 23°49' E 119°58'  

Dump ship's entire track history